Time;durP1;ratioP1;P1;durP2;ratioP2;P2;SDS_P1;SDS_P2;PMS_P1;PMS_P2;Temp;Humidity;BMP_temperature;BMP_pressure;BME280_temperature;BME280_humidity;BME280_pressure;Samples;Min_cycle;Max_cycle;Signal;HPM_P1;HPM_P2
2023/10/08 00:07:09;;;;;;;3.40;2.00;;;;;;;14.06;65.59;99990.02;672594;1261;138880;-81
2023/10/08 00:22:18;;;;;;;4.10;2.10;;;;;;;13.96;65.99;100012.99;672516;1264;140529;-81
2023/10/08 00:37:25;;;;;;;4.30;1.40;;;;;;;13.97;65.33;100007.77;672626;1264;139097;-81
2023/10/08 00:52:30;;;;;;;3.90;1.30;;;;;;;13.74;65.49;100012.14;672688;1262;139901;-81
2023/10/08 01:07:35;;;;;;;1.20;0.80;;;;;;;13.65;65.27;100015.06;673835;1265;138965;-81
2023/10/08 01:22:40;;;;;;;3.10;1.00;;;;;;;13.44;65.24;100036.60;672592;1260;138853;-81
2023/10/08 01:37:43;;;;;;;3.30;1.20;;;;;;;13.28;64.99;100059.24;672659;1263;139040;-81
2023/10/08 01:52:49;;;;;;;3.30;1.30;;;;;;;13.18;64.50;100067.83;677474;1262;138912;-81
2023/10/08 02:07:54;;;;;;;1.30;1.00;;;;;;;13.16;64.22;100100.90;673593;1262;139796;-82
2023/10/08 02:22:59;;;;;;;1.30;0.90;;;;;;;12.82;64.11;100129.93;673791;1264;139583;-81
2023/10/08 02:38:03;;;;;;;2.80;1.10;;;;;;;12.54;63.76;100158.25;672906;1260;139042;-82
2023/10/08 02:53:18;;;;;;;2.10;0.70;;;;;;;12.15;63.56;100174.33;672900;1275;138288;-81
2023/10/08 03:08:21;;;;;;;1.20;0.60;;;;;;;11.82;63.72;100188.77;672338;1263;139221;-82
2023/10/08 03:23:36;;;;;;;3.10;0.90;;;;;;;11.49;63.20;100200.30;674108;1263;138862;-81
2023/10/08 03:38:50;;;;;;;2.90;0.90;;;;;;;11.13;63.48;100218.30;672754;1263;138667;-79
2023/10/08 04:09:28;;;;;;;2.00;0.80;;;;;;;10.62;63.03;100252.45;673269;1263;138895;-80
2023/10/08 04:24:34;;;;;;;1.80;1.00;;;;;;;10.39;63.12;100264.94;673163;1260;139370;-81
2023/10/08 04:39:46;;;;;;;3.10;1.00;;;;;;;10.39;61.73;100287.27;674854;1263;140745;-81
2023/10/08 04:54:54;;;;;;;3.50;1.00;;;;;;;10.35;61.05;100311.94;673431;1275;140323;-80
2023/10/08 05:25:08;;;;;;;2.10;0.90;;;;;;;10.24;59.98;100359.03;673044;1263;138903;-80
2023/10/08 05:40:21;;;;;;;1.90;1.30;;;;;;;10.23;60.13;100372.02;673172;1260;140489;-80
2023/10/08 05:55:25;;;;;;;6.70;3.40;;;;;;;10.31;60.12;100403.22;673404;1279;140098;-81
2023/10/08 06:25:44;;;;;;;3.10;1.80;;;;;;;15.27;57.01;100464.70;672285;1265;139404;-82
2023/10/08 06:40:48;;;;;;;4.00;2.40;;;;;;;15.29;53.66;100495.49;672543;1266;140084;-81
2023/10/08 06:55:56;;;;;;;5.00;2.90;;;;;;;16.26;53.72;100525.89;674094;1265;138475;-81
2023/10/08 07:11:06;;;;;;;3.70;2.50;;;;;;;15.35;52.38;100538.06;674911;1260;139038;-80
2023/10/08 07:26:17;;;;;;;4.60;1.80;;;;;;;13.33;54.74;100545.60;673972;1273;138288;-80
2023/10/08 07:41:21;;;;;;;5.20;1.90;;;;;;;15.07;54.72;100574.98;672553;1261;139420;-80
2023/10/08 07:56:25;;;;;;;3.00;1.60;;;;;;;19.19;49.20;100595.65;672565;1274;139397;-81
2023/10/08 08:11:29;;;;;;;5.60;1.80;;;;;;;19.81;46.69;100605.14;673349;1265;138379;-81
2023/10/08 08:26:39;;;;;;;6.00;2.50;;;;;;;19.78;45.50;100614.73;673171;1265;138819;-80
2023/10/08 08:41:43;;;;;;;6.50;3.00;;;;;;;20.46;44.27;100640.22;672695;1264;139423;-82
2023/10/08 08:56:48;;;;;;;2.60;1.50;;;;;;;20.30;43.74;100648.67;672384;1270;139335;-80
2023/10/08 09:11:52;;;;;;;12.10;6.80;;;;;;;19.98;43.43;100649.20;674597;1264;138794;-81
2023/10/08 09:26:58;;;;;;;26.80;8.90;;;;;;;20.39;42.69;100669.58;673686;1263;138796;-80
2023/10/08 09:42:06;;;;;;;29.80;10.60;;;;;;;21.03;42.18;100673.51;674396;1266;139041;-80
2023/10/08 09:57:11;;;;;;;51.50;15.00;;;;;;;20.56;40.53;100678.45;672828;1267;139529;-81
2023/10/08 10:12:26;;;;;;;10.20;6.70;;;;;;;20.52;39.69;100687.78;673131;1273;139345;-81
2023/10/08 10:27:30;;;;;;;4.60;2.20;;;;;;;20.95;39.10;100702.84;675381;1273;139236;-82
2023/10/08 10:42:38;;;;;;;2.60;1.90;;;;;;;20.06;38.18;100715.08;672782;1266;141151;-82
2023/10/08 10:58:03;;;;;;;9.00;7.00;;;;;;;19.57;38.81;100726.59;676003;1266;138236;-84
2023/10/08 11:13:14;;;;;;;22.20;14.90;;;;;;;17.64;38.77;100736.11;672355;1274;138613;-80
2023/10/08 11:28:20;;;;;;;7.60;5.00;;;;;;;17.20;39.31;100741.59;672469;1273;138913;-79
2023/10/08 11:43:24;;;;;;;6.40;3.20;;;;;;;17.46;40.10;100736.00;673065;1265;138759;-80
2023/10/08 11:58:40;;;;;;;3.50;2.70;;;;;;;17.95;40.17;100739.27;672619;1264;139174;-80
2023/10/08 12:13:44;;;;;;;9.00;5.50;;;;;;;17.12;40.11;100757.38;673180;1274;139078;-79
2023/10/08 12:28:48;;;;;;;16.40;3.30;;;;;;;16.79;40.90;100765.16;673452;1261;138672;-80
2023/10/08 12:43:53;;;;;;;8.50;3.20;;;;;;;16.22;41.00;100772.00;677422;1260;138628;-79
2023/10/08 12:58:56;;;;;;;6.20;2.60;;;;;;;15.61;41.73;100786.13;670335;1263;138592;-78
2023/10/08 13:14:00;;;;;;;5.10;1.30;;;;;;;15.80;41.01;100794.41;671720;1267;139121;-84
2023/10/08 13:29:05;;;;;;;8.70;3.20;;;;;;;15.70;40.79;100804.77;671581;1264;139733;-78
2023/10/08 13:44:09;;;;;;;8.80;2.70;;;;;;;15.69;40.61;100815.40;670970;1264;138707;-79
2023/10/08 13:59:12;;;;;;;15.80;5.40;;;;;;;15.61;40.81;100835.45;672920;1264;138336;-79
2023/10/08 14:14:19;;;;;;;6.70;2.10;;;;;;;15.48;41.51;100845.88;672357;1267;139588;-80
2023/10/08 14:29:26;;;;;;;6.70;2.40;;;;;;;15.34;41.62;100857.85;672694;1260;138372;-80
2023/10/08 14:44:30;;;;;;;251.70;96.50;;;;;;;15.07;42.18;100876.23;672211;1263;138437;-79
2023/10/08 14:59:35;;;;;;;17.40;6.90;;;;;;;14.77;42.84;100884.58;672719;1264;139722;-78
2023/10/08 15:14:39;;;;;;;11.00;5.30;;;;;;;14.37;43.37;100902.16;672754;1265;139637;-79
2023/10/08 15:29:43;;;;;;;9.70;4.00;;;;;;;13.90;44.50;100934.55;672454;1263;142540;-80
2023/10/08 15:44:47;;;;;;;9.10;6.00;;;;;;;13.35;45.28;100963.84;672351;1268;138790;-81
2023/10/08 15:59:51;;;;;;;13.10;6.60;;;;;;;12.95;46.03;100984.20;672727;1261;138547;-79
2023/10/08 16:14:55;;;;;;;18.80;8.90;;;;;;;12.54;47.00;100991.60;673216;1260;138715;-80
2023/10/08 16:30:02;;;;;;;169.10;60.50;;;;;;;12.15;47.86;100999.71;672791;1264;138552;-80
2023/10/08 16:45:06;;;;;;;47.50;20.20;;;;;;;11.94;48.72;101018.45;672419;1267;138556;-80
2023/10/08 17:00:13;;;;;;;26.40;10.40;;;;;;;11.74;49.67;101031.10;673271;1275;138471;-80
2023/10/08 17:15:19;;;;;;;27.10;12.90;;;;;;;11.50;50.37;101049.88;673557;1259;138398;-80
2023/10/08 17:30:24;;;;;;;49.90;19.80;;;;;;;11.33;50.90;101064.84;673845;1264;138443;-81
2023/10/08 17:45:34;;;;;;;57.10;23.90;;;;;;;10.98;52.12;101072.27;676042;1263;139099;-81
2023/10/08 18:00:41;;;;;;;52.50;25.70;;;;;;;10.62;52.98;101084.08;674307;1264;138656;-81
2023/10/08 18:15:45;;;;;;;23.40;11.70;;;;;;;10.30;53.82;101090.13;672632;1263;139046;-81
2023/10/08 18:30:49;;;;;;;24.20;12.60;;;;;;;10.06;54.55;101097.81;672732;1262;139579;-80
2023/10/08 18:45:53;;;;;;;11.80;7.10;;;;;;;9.86;54.99;101094.05;673126;1264;139216;-80
2023/10/08 19:00:57;;;;;;;110.00;48.70;;;;;;;9.71;55.81;101092.43;672652;1264;138272;-80
2023/10/08 19:16:06;;;;;;;30.00;15.60;;;;;;;9.54;56.36;101092.45;672425;1259;139408;-80
2023/10/08 19:31:15;;;;;;;10.70;5.30;;;;;;;9.38;57.43;101099.36;672581;1266;138245;-79
2023/10/08 19:46:25;;;;;;;;;;;;;;;9.25;57.80;101091.55;673035;1259;138394;-81
2023/10/08 20:23:29;;;;;;;15.70;5.50;;;;;;;8.56;59.42;101107.45;654378;1304;1076924;-81
2023/10/08 20:38:33;;;;;;;11.60;4.70;;;;;;;8.27;59.66;101114.22;673193;1271;139073;-81
2023/10/08 20:53:38;;;;;;;9.30;3.10;;;;;;;8.15;60.73;101127.90;669798;1270;138256;-79
2023/10/08 21:08:43;;;;;;;10.10;3.90;;;;;;;8.30;61.64;101134.45;670657;1285;138267;-81
2023/10/08 21:23:48;;;;;;;10.10;3.90;;;;;;;8.37;61.27;101126.86;669836;1275;139026;-81
2023/10/08 21:38:52;;;;;;;7.30;2.80;;;;;;;8.14;62.10;101119.77;669167;1281;138642;-81
2023/10/08 21:53:55;;;;;;;7.20;2.80;;;;;;;8.03;62.66;101135.80;669662;1273;139232;-80
2023/10/08 22:09:08;;;;;;;13.50;5.50;;;;;;;7.90;62.89;101125.13;672534;1267;139077;-81
2023/10/08 22:24:12;;;;;;;9.40;4.10;;;;;;;7.46;63.02;101126.31;671802;1266;138490;-80
2023/10/08 22:39:20;;;;;;;15.00;4.30;;;;;;;7.14;63.40;101107.16;671356;1266;138145;-80
2023/10/08 22:54:24;;;;;;;6.60;2.70;;;;;;;6.92;63.64;101110.74;671791;1267;139819;-81
2023/10/08 23:09:31;;;;;;;5.40;2.10;;;;;;;6.85;64.25;101113.61;676221;1277;139252;-81
2023/10/08 23:24:35;;;;;;;11.50;3.60;;;;;;;6.89;65.76;101101.17;672649;1263;138279;-81
2023/10/08 23:39:39;;;;;;;14.60;6.30;;;;;;;7.10;66.76;101079.90;671373;1268;138752;-81
2023/10/08 23:54:43;;;;;;;9.80;3.80;;;;;;;7.23;65.95;101069.05;671399;1267;138744;-81
